Time;durP1;ratioP1;P1;durP2;ratioP2;P2;SDS_P1;SDS_P2;PMS_P1;PMS_P2;Temp;Humidity;BMP_temperature;BMP_pressure;BME280_temperature;BME280_humidity;BME280_pressure;Samples;Min_cycle;Max_cycle;Signal;HPM_P1;HPM_P2
2021/06/15 00:01:59;;;;;;;8.15;3.22;;;;;;;15.83;94.97;100495.70;1746095;80;20997;-39
2021/06/15 00:04:25;;;;;;;4.37;3.40;;;;;;;15.83;94.90;100495.70;1746138;82;20968;-39
2021/06/15 00:06:53;;;;;;;11.55;3.50;;;;;;;15.84;94.73;100502.62;1746003;82;20960;-38
2021/06/15 00:09:20;;;;;;;4.15;3.17;;;;;;;15.82;94.60;100497.45;1746165;82;20979;-39
2021/06/15 00:11:48;;;;;;;3.52;3.20;;;;;;;15.82;94.45;100494.83;1746065;82;21027;-38
2021/06/15 00:14:14;;;;;;;6.03;3.30;;;;;;;15.80;94.29;100490.13;1746137;80;21019;-38
2021/06/15 00:16:41;;;;;;;4.12;3.37;;;;;;;15.77;94.13;100491.09;1746069;80;21521;-38
2021/06/15 00:19:07;;;;;;;8.53;3.47;;;;;;;15.75;94.06;100496.83;1746175;82;21562;-38
2021/06/15 00:21:34;;;;;;;5.45;3.90;;;;;;;15.74;94.02;100501.66;1746081;82;20968;-39
2021/06/15 00:24:02;;;;;;;7.60;3.52;;;;;;;15.74;94.02;100506.88;1746121;82;21127;-38
2021/06/15 00:26:28;;;;;;;9.70;4.05;;;;;;;15.73;93.99;100507.78;1746240;82;20976;-38
2021/06/15 00:28:55;;;;;;;4.87;3.65;;;;;;;15.74;93.99;100506.88;1746134;82;20949;-38
2021/06/15 00:31:24;;;;;;;7.42;3.70;;;;;;;15.77;93.97;100498.92;1746049;82;21463;-38
2021/06/15 00:33:51;;;;;;;5.80;3.60;;;;;;;15.80;93.87;100501.44;1746062;82;20932;-39
2021/06/15 00:36:17;;;;;;;4.25;3.15;;;;;;;15.80;93.71;100504.48;1746002;80;22057;-39
2021/06/15 00:38:45;;;;;;;6.25;3.90;;;;;;;15.80;93.59;100497.52;1746004;82;20972;-39
2021/06/15 00:41:12;;;;;;;7.90;4.10;;;;;;;15.82;93.49;100499.22;1746165;82;20975;-39
2021/06/15 00:43:39;;;;;;;4.53;3.40;;;;;;;15.83;93.39;100495.70;1746009;80;20928;-39
2021/06/15 00:46:06;;;;;;;10.60;3.95;;;;;;;15.82;93.36;100494.00;1749879;82;21506;-39
2021/06/15 00:48:36;;;;;;;12.07;3.85;;;;;;;15.82;93.28;100500.05;1746057;82;21130;-39
2021/06/15 00:51:05;;;;;;;6.85;3.25;;;;;;;15.79;93.18;100493.22;1745995;82;20984;-39
2021/06/15 00:53:34;;;;;;;6.55;4.00;;;;;;;15.78;93.21;100490.18;1745980;80;20929;-39
2021/06/15 00:56:02;;;;;;;5.72;3.65;;;;;;;15.76;93.19;100488.56;1746117;82;20964;-39
2021/06/15 00:58:29;;;;;;;6.97;4.08;;;;;;;15.74;93.22;100495.13;1746072;82;20976;-39
2021/06/15 01:00:56;;;;;;;5.80;3.30;;;;;;;15.74;93.24;100487.30;1724583;82;21120;-39
2021/06/15 01:03:24;;;;;;;4.37;3.83;;;;;;;15.73;93.28;100483.47;1746015;82;20935;-38
2021/06/15 01:05:51;;;;;;;5.12;3.40;;;;;;;15.71;93.30;100478.77;1745981;82;21007;-39
2021/06/15 01:08:35;;;;;;;9.38;3.55;;;;;;;15.68;93.26;100482.80;1745978;82;20949;-39
2021/06/15 01:11:52;;;;;;;6.47;4.12;;;;;;;15.63;93.24;100481.67;1746101;82;21502;-39
2021/06/15 01:14:35;;;;;;;;;;;;;;;15.58;93.27;100479.23;1748606;82;21147;-37
2021/06/15 01:17:16;;;;;;;10.80;4.55;;;;;;;15.52;93.64;100479.01;1728572;82;20131;-39
2021/06/15 01:19:57;;;;;;;5.33;4.72;;;;;;;15.47;93.82;100483.56;1745928;82;21027;-39
2021/06/15 01:22:42;;;;;;;7.10;4.53;;;;;;;15.41;93.88;100482.50;1744525;82;20976;-39
2021/06/15 01:25:54;;;;;;;8.98;4.60;;;;;;;15.36;93.93;100486.58;1746510;82;20995;-38
2021/06/15 01:28:55;;;;;;;10.65;4.20;;;;;;;15.31;94.11;100488.52;1746007;82;21158;-38
2021/06/15 01:31:31;;;;;;;7.50;4.10;;;;;;;15.27;94.29;100471.73;1746174;80;20905;-38
2021/06/15 01:34:09;;;;;;;14.25;4.78;;;;;;;15.22;94.44;100470.15;1746100;82;21518;-38
2021/06/15 01:36:40;;;;;;;6.70;4.67;;;;;;;15.18;94.56;100468.57;1746029;82;20988;-38
2021/06/15 01:39:13;;;;;;;7.72;4.10;;;;;;;15.14;94.70;100465.69;1724853;81;21356;-38
2021/06/15 01:41:44;;;;;;;12.47;6.08;;;;;;;15.12;94.96;100466.20;1745656;82;21149;-38
2021/06/15 01:44:12;;;;;;;19.15;5.55;;;;;;;15.11;95.26;100465.80;1745964;82;20971;-38
2021/06/15 01:47:07;;;;;;;14.25;5.30;;;;;;;15.15;95.57;100469.12;1746089;82;20904;-37
2021/06/15 01:49:45;;;;;;;11.77;5.30;;;;;;;15.15;95.81;100469.12;1746171;80;21004;-39
2021/06/15 01:52:16;;;;;;;9.13;5.40;;;;;;;15.14;96.12;100466.98;1746461;80;20956;-37
2021/06/15 01:54:44;;;;;;;7.87;4.83;;;;;;;15.15;96.33;100464.78;1747897;81;20975;-38
2021/06/15 01:57:13;;;;;;;5.40;4.72;;;;;;;15.15;96.38;100469.12;1747694;82;21470;-37
2021/06/15 01:59:44;;;;;;;11.63;5.22;;;;;;;15.15;96.57;100473.91;1721095;82;21007;-37
2021/06/15 02:02:11;;;;;;;10.10;5.22;;;;;;;15.16;96.74;100476.07;1748807;82;21011;-38
2021/06/15 02:04:44;;;;;;;7.35;4.78;;;;;;;15.17;96.94;100473.39;1748617;82;21023;-38
2021/06/15 02:09:31;;;;;;;15.10;6.33;;;;;;;15.20;96.98;100473.27;1797762;79;22391;-38
2021/06/15 02:11:59;;;;;;;9.53;5.22;;;;;;;15.17;97.12;100471.25;1735405;81;21023;-38
2021/06/15 02:14:33;;;;;;;9.70;6.20;;;;;;;15.19;97.36;100471.57;1757451;81;21750;-39
2021/06/15 02:17:17;;;;;;;10.18;5.78;;;;;;;15.23;97.68;100462.72;1722925;83;20935;-38
2021/06/15 02:20:02;;;;;;;7.50;5.00;;;;;;;15.28;97.89;100461.69;1724132;83;21466;-38
2021/06/15 02:22:29;;;;;;;6.47;5.00;;;;;;;15.34;98.17;100462.78;1724105;83;21583;-38
2021/06/15 02:24:59;;;;;;;12.88;5.10;;;;;;;15.38;98.18;100463.06;1724079;83;21177;-38
2021/06/15 02:27:27;;;;;;;8.00;5.42;;;;;;;15.39;98.12;100460.84;1724159;83;21097;-38
2021/06/15 02:29:57;;;;;;;14.07;5.70;;;;;;;15.44;98.27;100461.52;1723915;83;20994;-38
2021/06/15 02:32:32;;;;;;;6.67;4.97;;;;;;;15.49;98.35;100458.27;1723893;83;21534;-40
2021/06/15 02:35:02;;;;;;;7.40;5.12;;;;;;;15.54;98.45;100462.48;1723846;83;20986;-39
2021/06/15 02:38:01;;;;;;;10.48;5.30;;;;;;;15.59;98.51;100465.75;1707329;82;20939;-39
2021/06/15 02:40:27;;;;;;;9.65;5.42;;;;;;;15.63;98.53;100468.16;1723825;83;21849;-38
2021/06/15 02:42:55;;;;;;;7.42;5.20;;;;;;;15.69;98.40;100461.02;1724077;83;21513;-38
2021/06/15 02:45:26;;;;;;;12.93;5.00;;;;;;;15.72;98.43;100459.59;1723899;83;20987;-38
2021/06/15 02:47:53;;;;;;;5.65;4.65;;;;;;;15.76;98.45;100454.16;1707097;83;20951;-38
2021/06/15 02:50:20;;;;;;;14.50;5.72;;;;;;;15.85;98.48;100453.42;1724063;83;21509;-38
2021/06/15 02:53:10;;;;;;;7.70;5.37;;;;;;;15.90;98.41;100457.55;1724105;83;21783;-38
2021/06/15 02:55:40;;;;;;;14.70;5.40;;;;;;;15.96;98.44;100451.23;1700358;83;21497;-38
2021/06/15 02:58:07;;;;;;;10.90;5.40;;;;;;;16.05;98.41;100453.93;1724246;81;20983;-39
2021/06/15 03:00:34;;;;;;;12.47;5.53;;;;;;;16.11;98.42;100454.98;1721017;83;21490;-39
2021/06/15 03:03:05;;;;;;;11.33;4.75;;;;;;;16.21;98.59;100450.22;1697939;84;21569;-39
2021/06/15 03:05:31;;;;;;;12.45;5.58;;;;;;;16.31;98.52;100451.55;1689833;84;21640;-39
2021/06/15 03:07:58;;;;;;;14.07;5.12;;;;;;;16.40;98.34;100454.20;1717245;83;20939;-39
2021/06/15 03:10:26;;;;;;;9.68;5.50;;;;;;;16.48;98.07;100463.02;1692627;83;20951;-39
2021/06/15 03:13:11;;;;;;;6.10;5.00;;;;;;;16.56;97.93;100469.22;1692572;83;20987;-39
2021/06/15 03:15:47;;;;;;;5.87;5.30;;;;;;;16.65;97.94;100472.28;1721675;83;21537;-39
2021/06/15 03:18:45;;;;;;;10.88;6.00;;;;;;;16.77;97.81;100470.91;1721734;83;21122;-39
2021/06/15 03:21:15;;;;;;;8.25;6.15;;;;;;;16.88;97.54;100477.41;1692173;84;22136;-38
2021/06/15 03:24:04;;;;;;;8.70;5.45;;;;;;;17.00;97.31;100470.37;1692379;84;20955;-39
2021/06/15 03:26:43;;;;;;;12.33;6.03;;;;;;;17.13;96.99;100472.41;1692066;84;21101;-37
2021/06/15 03:29:14;;;;;;;8.13;5.20;;;;;;;17.27;96.45;100475.25;1683232;84;21057;-38
2021/06/15 03:31:42;;;;;;;12.65;5.40;;;;;;;17.38;95.77;100468.22;1695461;83;21069;-38
2021/06/15 03:34:11;;;;;;;7.37;5.60;;;;;;;17.50;95.14;100470.24;1692143;84;20999;-38
2021/06/15 03:36:38;;;;;;;7.37;5.35;;;;;;;17.63;94.72;100469.20;1692078;84;21552;-39
2021/06/15 03:39:05;;;;;;;8.55;5.05;;;;;;;17.81;94.04;100469.23;1643008;84;21477;-39
2021/06/15 03:41:32;;;;;;;10.75;5.60;;;;;;;18.05;93.55;100464.59;1692186;84;21436;-39
2021/06/15 03:44:02;;;;;;;5.85;5.30;;;;;;;18.37;92.95;100459.97;1643118;84;21119;-39
2021/06/15 03:46:32;;;;;;;8.43;5.50;;;;;;;18.70;91.45;100462.23;1690623;84;21545;-39
2021/06/15 03:48:58;;;;;;;12.70;5.97;;;;;;;18.98;89.37;100459.45;1721006;82;21011;-39
2021/06/15 03:51:28;;;;;;;14.35;5.12;;;;;;;19.29;87.64;100454.73;1666187;84;20963;-39
2021/06/15 03:54:05;;;;;;;9.48;5.28;;;;;;;19.60;86.03;100460.89;1692472;84;21002;-38
2021/06/15 03:56:23;;;;;;;6.37;5.42;;;;;;;19.91;84.64;100460.48;1690367;84;21323;-38
2021/06/15 03:58:49;;;;;;;15.23;5.17;;;;;;;20.19;82.83;100464.13;1691953;83;21015;-39
2021/06/15 04:01:16;;;;;;;6.50;4.78;;;;;;;20.42;81.44;100465.03;1692155;83;21038;-39
2021/06/15 04:03:43;;;;;;;7.47;4.90;;;;;;;20.65;80.13;100475.01;1692063;84;20978;-38
2021/06/15 04:06:09;;;;;;;5.95;4.62;;;;;;;20.89;78.65;100467.91;1692156;84;20970;-39
2021/06/15 04:08:37;;;;;;;8.88;5.22;;;;;;;21.12;77.59;100478.78;1684544;83;21962;-39
2021/06/15 04:11:04;;;;;;;10.88;4.50;;;;;;;21.28;75.76;100473.40;1735174;82;20972;-39
2021/06/15 04:13:31;;;;;;;9.60;4.72;;;;;;;21.39;74.96;100469.59;1735339;82;20936;-39
2021/06/15 04:15:57;;;;;;;4.72;4.33;;;;;;;21.54;74.65;100469.57;1735397;82;20925;-39
2021/06/15 04:18:25;;;;;;;11.40;4.40;;;;;;;21.69;73.43;100458.54;1735484;82;20984;-39
2021/06/15 04:20:53;;;;;;;5.33;4.67;;;;;;;21.81;72.99;100464.30;1735432;82;21150;-39
2021/06/15 04:23:27;;;;;;;7.55;4.60;;;;;;;21.95;71.76;100463.87;1735310;82;20929;-39
2021/06/15 04:25:54;;;;;;;4.83;4.30;;;;;;;22.01;71.08;100461.31;1735374;82;20984;-39
2021/06/15 04:28:20;;;;;;;5.17;4.78;;;;;;;21.99;70.64;100454.81;1735282;82;21001;-39
2021/06/15 04:30:47;;;;;;;4.97;4.37;;;;;;;22.01;70.85;100456.88;1735352;82;21467;-39
2021/06/15 04:33:14;;;;;;;10.53;4.58;;;;;;;22.05;70.37;100451.77;1735381;82;21804;-39
2021/06/15 04:35:44;;;;;;;8.13;4.37;;;;;;;22.06;70.30;100457.90;1735167;82;20968;-39
2021/06/15 04:38:14;;;;;;;6.83;4.70;;;;;;;22.20;71.01;100448.57;1735266;82;21533;-39
2021/06/15 04:40:45;;;;;;;8.65;4.50;;;;;;;22.50;70.21;100450.58;1735192;82;21000;-39
2021/06/15 04:43:46;;;;;;;6.78;4.40;;;;;;;22.64;68.48;100453.11;1735381;82;21285;-39
2021/06/15 04:46:37;;;;;;;5.53;4.10;;;;;;;22.65;68.34;100456.12;1718722;82;21185;-39
2021/06/15 04:49:08;;;;;;;11.75;4.10;;;;;;;22.70;68.96;100453.63;1735315;82;21040;-38
2021/06/15 04:51:35;;;;;;;5.08;4.40;;;;;;;22.88;68.60;100448.39;1735445;82;20957;-39
2021/06/15 04:54:02;;;;;;;6.10;4.30;;;;;;;23.10;67.51;100453.43;1735304;82;20961;-39
2021/06/15 04:56:29;;;;;;;4.60;3.92;;;;;;;23.23;66.77;100447.66;1735478;81;21607;-39
2021/06/15 04:59:00;;;;;;;12.15;4.20;;;;;;;23.33;66.88;100458.89;1735257;82;21803;-39
2021/06/15 05:01:27;;;;;;;14.40;5.05;;;;;;;23.49;66.99;100450.69;1735156;82;20985;-39
2021/06/15 05:03:55;;;;;;;6.60;4.35;;;;;;;23.70;65.90;100456.20;1735219;81;20993;-39
2021/06/15 05:06:21;;;;;;;6.20;4.20;;;;;;;23.80;65.37;100455.05;1735264;82;20977;-40
2021/06/15 05:08:58;;;;;;;9.40;4.40;;;;;;;23.86;64.44;100456.38;1739640;81;21099;-39
2021/06/15 05:11:26;;;;;;;5.97;4.25;;;;;;;23.81;64.40;100454.92;1749311;82;21175;-39
2021/06/15 05:13:54;;;;;;;7.33;4.35;;;;;;;23.89;64.51;100451.71;1749282;82;20968;-39
2021/06/15 05:16:22;;;;;;;8.25;3.95;;;;;;;24.01;64.60;100451.77;1749371;82;20967;-39
2021/06/15 05:18:49;;;;;;;6.42;4.28;;;;;;;24.18;63.83;100457.13;1749261;82;21528;-39
2021/06/15 05:21:19;;;;;;;6.97;3.87;;;;;;;24.37;63.58;100448.61;1749234;82;20920;-39
2021/06/15 05:24:05;;;;;;;6.30;4.03;;;;;;;24.66;63.04;100449.00;1721761;82;21873;-39
2021/06/15 05:26:32;;;;;;;10.38;3.77;;;;;;;24.92;62.37;100446.59;1749211;82;21015;-39
2021/06/15 05:28:58;;;;;;;8.35;3.77;;;;;;;25.19;61.19;100451.50;1749165;82;20960;-39
2021/06/15 05:31:25;;;;;;;5.67;3.40;;;;;;;25.36;60.73;100447.95;1749178;82;21023;-40
2021/06/15 05:33:51;;;;;;;8.53;3.58;;;;;;;25.56;60.19;100453.00;1749316;82;20944;-39
2021/06/15 05:36:18;;;;;;;8.48;3.80;;;;;;;25.74;59.42;100454.61;1749290;82;21146;-40
2021/06/15 05:38:45;;;;;;;5.90;4.00;;;;;;;25.81;57.93;100449.14;1749055;82;20987;-40
2021/06/15 05:41:12;;;;;;;4.25;3.20;;;;;;;25.83;58.35;100451.67;1749213;82;20920;-40
2021/06/15 05:43:38;;;;;;;7.67;3.40;;;;;;;25.85;57.47;100454.18;1749357;82;21492;-39
2021/06/15 05:46:05;;;;;;;4.35;3.85;;;;;;;25.73;58.35;100451.59;1749288;82;20963;-40
2021/06/15 05:48:32;;;;;;;5.75;3.67;;;;;;;25.69;59.07;100451.50;1749195;82;21150;-40
2021/06/15 05:50:58;;;;;;;5.53;3.55;;;;;;;25.80;58.95;100446.13;1749275;82;21541;-39
2021/06/15 05:53:26;;;;;;;9.60;3.72;;;;;;;26.01;59.29;100451.94;1749297;82;21513;-39
2021/06/15 05:55:55;;;;;;;4.28;3.90;;;;;;;26.15;57.18;100453.42;1749184;82;21541;-39
2021/06/15 05:58:22;;;;;;;5.03;4.10;;;;;;;26.09;57.20;100453.45;1749422;82;21023;-39
2021/06/15 06:00:49;;;;;;;4.75;3.58;;;;;;;26.20;57.81;100450.42;1749320;82;21104;-40
2021/06/15 06:03:22;;;;;;;3.67;3.05;;;;;;;26.40;57.92;100440.75;1749165;82;21003;-40
2021/06/15 06:08:30;;;;;;;4.15;2.90;;;;;;;26.70;56.96;100435.08;1749308;81;21023;-39
2021/06/15 06:10:56;;;;;;;6.70;3.20;;;;;;;26.94;56.46;100433.45;1749312;82;21502;-40
2021/06/15 06:13:23;;;;;;;5.33;2.98;;;;;;;27.07;55.71;100431.02;1749238;82;21869;-39
2021/06/15 06:15:50;;;;;;;5.75;3.02;;;;;;;27.12;56.15;100438.08;1749305;82;21506;-39
2021/06/15 06:18:17;;;;;;;5.22;3.15;;;;;;;27.27;55.42;100433.72;1749269;82;21003;-40
2021/06/15 06:20:43;;;;;;;4.62;3.10;;;;;;;27.40;54.45;100432.94;1749233;82;21014;-40
2021/06/15 06:23:10;;;;;;;9.53;3.30;;;;;;;27.42;54.22;100428.36;1749224;82;21011;-40
2021/06/15 06:25:37;;;;;;;10.78;3.50;;;;;;;27.37;53.99;100429.23;1749174;82;21058;-39
2021/06/15 06:28:04;;;;;;;3.05;2.70;;;;;;;27.33;54.40;100432.68;1749157;82;20936;-40
2021/06/15 06:30:32;;;;;;;5.53;3.00;;;;;;;27.31;53.79;100433.31;1749128;82;20996;-39
2021/06/15 06:32:58;;;;;;;14.13;2.62;;;;;;;27.29;53.71;100427.77;1749423;82;20974;-39
2021/06/15 06:35:25;;;;;;;4.12;2.85;;;;;;;27.16;54.69;100434.20;1749311;82;20972;-40
2021/06/15 06:37:51;;;;;;;4.30;2.72;;;;;;;27.11;55.10;100424.45;1749459;82;21114;-39
2021/06/15 06:40:17;;;;;;;7.22;3.05;;;;;;;27.14;54.79;100422.02;1749124;82;20924;-39
2021/06/15 06:42:44;;;;;;;5.25;2.60;;;;;;;27.16;53.86;100430.22;1749258;82;20913;-40
2021/06/15 06:45:12;;;;;;;3.42;2.90;;;;;;;27.08;53.67;100427.39;1749262;82;21003;-39
2021/06/15 06:47:39;;;;;;;3.90;2.50;;;;;;;27.16;53.58;100422.25;1749162;82;20936;-40
2021/06/15 06:50:07;;;;;;;6.95;2.30;;;;;;;27.25;52.98;100418.75;1749138;82;21146;-39
2021/06/15 06:52:34;;;;;;;5.60;2.30;;;;;;;27.25;52.42;100412.12;1749177;82;20900;-40
2021/06/15 06:55:00;;;;;;;5.40;2.52;;;;;;;27.27;52.96;100409.30;1749193;81;21042;-40
2021/06/15 06:57:26;;;;;;;5.08;2.30;;;;;;;27.32;52.63;100406.23;1749276;82;20975;-40
2021/06/15 06:59:53;;;;;;;2.60;2.40;;;;;;;27.31;53.07;100412.53;1749321;82;21022;-40
2021/06/15 07:02:19;;;;;;;7.80;2.42;;;;;;;27.36;52.05;100409.81;1749422;82;21154;-40
2021/06/15 07:04:46;;;;;;;5.10;2.58;;;;;;;27.44;51.55;100409.60;1749215;82;20929;-40
2021/06/15 07:07:12;;;;;;;5.42;2.60;;;;;;;27.52;52.04;100409.28;1749343;82;21297;-39
2021/06/15 07:09:38;;;;;;;4.50;2.35;;;;;;;27.69;51.81;100406.91;1749330;81;21027;-39
2021/06/15 07:12:40;;;;;;;8.83;2.50;;;;;;;27.76;52.09;100415.13;1749326;82;20896;-39
2021/06/15 07:15:08;;;;;;;4.47;2.15;;;;;;;27.96;50.89;100408.81;1749357;82;21166;-40
2021/06/15 07:17:35;;;;;;;4.30;2.27;;;;;;;27.98;51.16;100411.34;1749165;82;21003;-40
2021/06/15 07:20:03;;;;;;;2.05;1.87;;;;;;;28.06;49.81;100412.78;1721571;82;21026;-40
2021/06/15 07:22:30;;;;;;;2.25;1.82;;;;;;;28.03;49.72;100408.23;1749227;82;20971;-40
2021/06/15 07:24:56;;;;;;;4.33;2.12;;;;;;;28.03;51.08;100404.23;1749410;82;20971;-40
2021/06/15 07:27:22;;;;;;;3.80;1.95;;;;;;;28.20;51.06;100406.70;1749326;82;21736;-41
2021/06/15 07:29:49;;;;;;;6.10;2.05;;;;;;;28.32;50.04;100405.52;1749275;82;21560;-41
2021/06/15 07:32:15;;;;;;;7.30;1.90;;;;;;;28.32;48.55;100400.20;1749452;82;21498;-40
2021/06/15 07:34:42;;;;;;;2.10;1.90;;;;;;;28.21;50.48;100409.70;1749354;82;21490;-39
2021/06/15 07:37:09;;;;;;;10.10;1.90;;;;;;;28.20;50.98;100408.03;1749255;80;21019;-40
2021/06/15 07:39:35;;;;;;;3.52;1.75;;;;;;;28.32;51.20;100410.02;1749224;82;21198;-40
2021/06/15 07:42:04;;;;;;;6.47;1.62;;;;;;;28.43;49.56;100409.82;1749319;82;20928;-40
2021/06/15 07:44:30;;;;;;;3.45;1.87;;;;;;;28.51;49.76;100405.11;1749276;82;21018;-39
2021/06/15 07:46:56;;;;;;;7.85;1.92;;;;;;;28.67;50.48;100398.66;1749245;82;20972;-40
2021/06/15 07:49:24;;;;;;;7.75;2.05;;;;;;;28.85;50.38;100401.86;1749189;82;21165;-40
2021/06/15 07:51:51;;;;;;;7.45;1.80;;;;;;;29.00;48.46;100400.04;1749181;80;21868;-40
2021/06/15 07:54:18;;;;;;;8.68;2.33;;;;;;;28.95;47.00;100396.00;1749442;82;21458;-40
2021/06/15 07:56:44;;;;;;;5.33;2.00;;;;;;;28.78;47.29;100392.27;1749310;82;21533;-40
2021/06/15 07:59:11;;;;;;;9.63;2.12;;;;;;;28.72;48.98;100390.20;1749233;80;20988;-40
2021/06/15 08:01:38;;;;;;;4.25;1.90;;;;;;;28.77;47.68;100390.59;1749282;82;21075;-40
2021/06/15 08:04:04;;;;;;;2.30;2.10;;;;;;;28.71;47.86;100387.70;1749282;82;21127;-40
2021/06/15 08:06:35;;;;;;;8.33;2.10;;;;;;;28.79;48.13;100387.31;1749222;82;21475;-40
2021/06/15 08:09:01;;;;;;;6.37;2.05;;;;;;;28.81;47.79;100383.19;1749472;82;20980;-40
2021/06/15 08:11:28;;;;;;;8.25;2.08;;;;;;;28.82;47.48;100387.52;1735357;81;20936;-40
2021/06/15 08:13:54;;;;;;;8.38;2.30;;;;;;;28.77;48.18;100379.94;1735248;82;21068;-40
2021/06/15 08:16:21;;;;;;;5.05;2.20;;;;;;;28.88;47.30;100367.45;1735316;81;21148;-39
2021/06/15 08:18:48;;;;;;;3.98;2.12;;;;;;;28.90;47.94;100378.28;1735080;82;21013;-40
2021/06/15 08:21:14;;;;;;;5.17;1.90;;;;;;;29.01;48.78;100375.08;1735407;82;21475;-40
2021/06/15 08:23:41;;;;;;;1.85;1.70;;;;;;;29.25;47.75;100380.64;1735154;82;20997;-40
2021/06/15 08:26:07;;;;;;;7.50;1.82;;;;;;;29.40;46.11;100378.75;1735360;82;21494;-41
2021/06/15 08:28:34;;;;;;;1.60;1.50;;;;;;;29.50;45.98;100382.22;1735214;82;21491;-41
2021/06/15 08:31:00;;;;;;;5.00;1.60;;;;;;;29.57;43.79;100381.59;1735221;82;21071;-40
2021/06/15 08:33:27;;;;;;;2.62;1.92;;;;;;;29.37;44.57;100380.39;1735174;81;20936;-41
2021/06/15 08:35:54;;;;;;;5.45;1.77;;;;;;;29.37;45.23;100382.58;1735073;82;20978;-41
2021/06/15 08:38:21;;;;;;;11.00;2.12;;;;;;;29.36;45.75;100378.72;1735323;82;22241;-40
2021/06/15 08:40:49;;;;;;;8.88;2.20;;;;;;;29.41;44.63;100371.64;1735345;82;21956;-41
2021/06/15 08:43:17;;;;;;;2.80;1.80;;;;;;;29.23;45.44;100371.11;1735052;82;20956;-41
2021/06/15 08:45:44;;;;;;;8.38;2.22;;;;;;;28.82;46.27;100379.05;1735404;82;20945;-40
2021/06/15 08:48:11;;;;;;;3.15;1.82;;;;;;;28.67;46.49;100372.04;1735252;82;20988;-39
2021/06/15 08:50:38;;;;;;;3.87;1.70;;;;;;;28.75;47.01;100366.45;1735255;82;21000;-40
2021/06/15 08:53:07;;;;;;;6.17;1.75;;;;;;;28.90;45.77;100367.62;1735137;81;21132;-41
2021/06/15 08:55:34;;;;;;;3.12;1.80;;;;;;;29.01;46.75;100368.41;1735227;82;20930;-41
2021/06/15 08:58:15;;;;;;;2.33;1.62;;;;;;;29.28;44.87;100376.81;1735605;82;21035;-41
2021/06/15 09:00:41;;;;;;;1.95;1.85;;;;;;;29.42;44.82;100367.98;1735184;82;20925;-40
2021/06/15 09:03:14;;;;;;;4.10;1.60;;;;;;;29.58;44.24;100369.45;1735256;82;20989;-40
2021/06/15 09:05:41;;;;;;;7.58;1.85;;;;;;;29.70;44.97;100367.38;1738671;81;21173;-41
2021/06/15 09:08:10;;;;;;;3.52;1.60;;;;;;;29.90;43.15;100364.48;1735287;81;21563;-41
2021/06/15 09:10:44;;;;;;;3.02;2.05;;;;;;;29.86;43.58;100373.79;1739070;81;20929;-39
2021/06/15 09:13:39;;;;;;;5.65;2.55;;;;;;;29.80;43.29;100370.77;1743459;82;20972;-39
2021/06/15 09:16:24;;;;;;;3.75;2.35;;;;;;;29.90;43.72;100364.48;1743497;82;20960;-40
2021/06/15 09:18:54;;;;;;;2.00;1.70;;;;;;;29.98;44.58;100363.21;1730708;82;21341;-41
2021/06/15 09:21:35;;;;;;;5.60;2.00;;;;;;;30.01;43.69;100365.59;1743432;82;21539;-39
2021/06/15 09:24:12;;;;;;;2.80;2.58;;;;;;;29.99;44.04;100356.03;1743414;82;20936;-39
2021/06/15 09:27:08;;;;;;;5.67;2.20;;;;;;;30.07;44.26;100355.61;1743734;82;20983;-39
2021/06/15 09:29:52;;;;;;;2.72;2.00;;;;;;;30.04;44.47;100354.59;1743468;82;20975;-41
2021/06/15 09:32:38;;;;;;;5.25;1.90;;;;;;;29.83;43.22;100345.11;1743551;82;21160;-40
2021/06/15 09:35:16;;;;;;;7.35;2.20;;;;;;;29.76;43.00;100349.41;1743441;81;21000;-40
2021/06/15 09:38:00;;;;;;;2.37;2.10;;;;;;;29.42;42.88;100348.81;1743585;82;21047;-40
2021/06/15 09:40:29;;;;;;;8.25;2.25;;;;;;;29.15;43.69;100348.40;1741564;82;21047;-39
2021/06/15 09:43:12;;;;;;;3.83;2.10;;;;;;;29.13;45.17;100343.20;1735550;81;20948;-40
2021/06/15 09:45:42;;;;;;;8.28;1.98;;;;;;;28.99;44.33;100339.77;1743378;82;21214;-40
2021/06/15 09:48:29;;;;;;;2.70;2.27;;;;;;;28.62;44.51;100341.01;1743333;82;20937;-40
2021/06/15 09:51:05;;;;;;;5.15;2.40;;;;;;;28.36;45.54;100341.70;1743314;82;21011;-40
2021/06/15 09:53:39;;;;;;;3.02;2.10;;;;;;;28.57;46.78;100337.96;1743361;81;21007;-40
2021/06/15 09:56:10;;;;;;;6.78;2.72;;;;;;;28.95;45.65;100332.08;1743354;82;21549;-40
2021/06/15 09:58:54;;;;;;;7.50;2.22;;;;;;;29.24;44.78;100328.82;1743605;80;21775;-40
2021/06/15 10:01:40;;;;;;;5.58;3.10;;;;;;;29.29;43.79;100320.38;1743526;81;20940;-40
2021/06/15 10:04:17;;;;;;;;;;;;;;;29.24;43.70;100314.16;1746285;82;20999;-40
2021/06/15 10:06:52;;;;;;;3.02;2.00;;;;;;;29.57;42.36;100314.94;1743724;81;20464;-40
2021/06/15 10:09:33;;;;;;;11.10;2.10;;;;;;;29.94;42.40;100303.17;1743386;81;20980;-40
2021/06/15 10:12:06;;;;;;;4.92;2.08;;;;;;;30.13;41.43;100311.94;1735663;81;21526;-40
2021/06/15 10:14:36;;;;;;;4.15;2.70;;;;;;;29.81;42.50;100305.77;1735230;82;21028;-40
2021/06/15 10:17:04;;;;;;;6.70;2.30;;;;;;;29.41;43.22;100310.34;1735287;82;20984;-40
2021/06/15 10:19:32;;;;;;;5.08;1.92;;;;;;;29.03;43.71;100304.66;1735263;82;20941;-40
2021/06/15 10:21:59;;;;;;;9.08;1.98;;;;;;;28.89;44.16;100298.55;1735253;82;21046;-40
2021/06/15 10:24:26;;;;;;;5.87;1.80;;;;;;;28.87;45.05;100292.03;1735266;82;21147;-40
2021/06/15 10:26:53;;;;;;;3.75;1.85;;;;;;;28.98;44.23;100296.81;1735305;81;21444;-40
2021/06/15 10:29:21;;;;;;;2.85;2.10;;;;;;;28.95;43.79;100284.14;1735212;82;20977;-40
2021/06/15 10:31:51;;;;;;;10.40;1.87;;;;;;;28.89;42.03;100287.39;1735485;81;21009;-40
2021/06/15 10:34:58;;;;;;;4.53;2.25;;;;;;;28.92;44.25;100296.41;1735320;82;20940;-40
2021/06/15 10:37:39;;;;;;;3.40;2.10;;;;;;;29.06;45.93;100292.88;1735709;81;21132;-40
2021/06/15 10:40:17;;;;;;;3.77;2.20;;;;;;;29.18;47.14;100289.48;1735332;81;21020;-40
2021/06/15 10:43:21;;;;;;;10.65;1.82;;;;;;;29.56;46.51;100270.62;1735487;81;21557;-41
2021/06/15 10:45:52;;;;;;;2.17;1.90;;;;;;;29.91;44.14;100271.46;1735478;82;20985;-42
2021/06/15 10:48:23;;;;;;;7.28;1.57;;;;;;;30.06;43.68;100271.72;1735697;82;20969;-41
2021/06/15 10:50:52;;;;;;;7.30;1.80;;;;;;;29.91;42.22;100277.64;1735372;82;21132;-39
2021/06/15 10:53:38;;;;;;;2.40;2.20;;;;;;;29.61;42.83;100274.98;1735401;82;20890;-39
2021/06/15 10:56:08;;;;;;;6.15;2.00;;;;;;;29.23;43.61;100273.86;1735502;82;21435;-39
2021/06/15 10:58:44;;;;;;;4.83;1.90;;;;;;;29.19;43.40;100264.50;1735359;82;21007;-40
2021/06/15 11:01:24;;;;;;;5.10;1.70;;;;;;;29.46;44.21;100260.06;1735454;82;20968;-40
2021/06/15 11:03:57;;;;;;;3.15;1.75;;;;;;;29.84;42.97;100255.28;1735465;82;21152;-40
2021/06/15 11:06:33;;;;;;;6.35;2.00;;;;;;;30.18;41.37;100245.58;1735192;81;20965;-40
2021/06/15 11:09:10;;;;;;;10.10;1.85;;;;;;;30.66;40.79;100241.89;1735317;81;20960;-40
2021/06/15 11:11:36;;;;;;;8.28;1.57;;;;;;;31.04;40.18;100243.55;1744190;82;20963;-40
2021/06/15 11:14:22;;;;;;;5.20;1.35;;;;;;;31.16;38.59;100251.24;1721679;82;20980;-41
2021/06/15 11:16:51;;;;;;;6.83;1.60;;;;;;;30.76;37.58;100249.75;1749265;82;21148;-40
2021/06/15 11:19:26;;;;;;;2.08;1.60;;;;;;;30.09;37.87;100257.57;1749217;82;20980;-41
2021/06/15 11:22:08;;;;;;;4.55;1.75;;;;;;;29.48;40.35;100259.41;1749293;82;20979;-40
2021/06/15 11:24:50;;;;;;;7.08;1.98;;;;;;;29.04;42.10;100258.90;1749281;81;21015;-40
2021/06/15 11:27:28;;;;;;;2.45;2.10;;;;;;;28.76;41.81;100267.77;1749310;82;21569;-39
2021/06/15 11:29:57;;;;;;;4.92;1.77;;;;;;;28.46;42.81;100270.31;1749176;82;21486;-39
2021/06/15 11:32:36;;;;;;;8.10;1.60;;;;;;;28.34;42.85;100267.84;1749163;82;21006;-40
2021/06/15 11:35:08;;;;;;;8.20;1.25;;;;;;;28.51;41.61;100272.84;1749473;82;21058;-40
2021/06/15 11:37:50;;;;;;;5.33;1.10;;;;;;;28.89;40.66;100267.93;1749330;82;20999;-40
2021/06/15 11:40:30;;;;;;;4.25;0.93;;;;;;;29.38;36.62;100256.80;1749051;82;21457;-40
2021/06/15 11:43:12;;;;;;;2.35;1.20;;;;;;;29.63;36.32;100258.32;1749648;82;21152;-40
2021/06/15 11:45:43;;;;;;;3.92;1.35;;;;;;;29.82;38.48;100250.09;1749173;82;20952;-40
2021/06/15 11:48:31;;;;;;;7.40;2.37;;;;;;;29.93;39.38;100232.12;1749549;82;20975;-40
2021/06/15 11:51:09;;;;;;;5.33;2.42;;;;;;;30.08;39.42;100228.41;1749204;82;20948;-40